Terminal Aerodrome Forecast
Issued by NWS St Louis, MO

Home | Current Version | Previous Version | Text Only | Print | Product List | Glossary On
Versions: 1 2 3 4 5 6 7 8 9 10 11 12 13 14 15 16 17 18 19 20 21 22 23 24 25 26 27 28 29
000
FTUS43 KLSX 311400 AAA
TAFSTL
TAF AMD
KSTL 311452Z 3115/0118 20006KT P6SM OVC080
     FM312200 15006KT 4SM -RA SCT015 OVC025
     FM010100 12005KT 6SM -RA SCT025 OVC050
     FM010600 15006KT 3SM -RA OVC020
     FM011400 19008KT 2SM RA SCT009 OVC015=

USA.gov is the U.S. government's official web portal to all federal, state and local government web resources and services.